Time;durP1;ratioP1;P1;durP2;ratioP2;P2;SDS_P1;SDS_P2;PMS_P1;PMS_P2;Temp;Humidity;BMP_temperature;BMP_pressure;BME280_temperature;BME280_humidity;BME280_pressure;Samples;Min_cycle;Max_cycle;Signal;HPM_P1;HPM_P2
2022/10/20 00:01:48;;;;;;;13.70;8.70;;;;;;;8.78;100.00;101491.44;5006628;29;20038;-73
2022/10/20 00:04:19;;;;;;;17.07;9.73;;;;;;;8.75;100.00;101487.06;5007576;29;20070;-73
2022/10/20 00:06:51;;;;;;;18.00;9.93;;;;;;;8.78;100.00;101481.03;5007697;29;20079;-74
2022/10/20 00:09:22;;;;;;;15.87;8.67;;;;;;;8.68;100.00;101474.91;5007979;29;20081;-73
2022/10/20 00:11:53;;;;;;;12.87;8.53;;;;;;;8.68;100.00;101467.13;5006594;29;20468;-73
2022/10/20 00:14:25;;;;;;;11.53;8.97;;;;;;;8.61;100.00;101480.06;5006274;29;20130;-73
2022/10/20 00:16:57;;;;;;;16.47;10.67;;;;;;;8.66;100.00;101474.06;5007539;29;20031;-73
2022/10/20 00:19:28;;;;;;;15.30;9.15;;;;;;;8.65;100.00;101484.44;5007501;29;20046;-73
2022/10/20 00:22:00;;;;;;;17.00;9.67;;;;;;;8.54;100.00;101476.56;5007331;29;20043;-73
2022/10/20 00:24:31;;;;;;;14.40;9.43;;;;;;;8.50;100.00;101474.78;5007109;29;20094;-73
2022/10/20 00:27:02;;;;;;;15.20;10.80;;;;;;;8.46;100.00;101476.50;5006994;29;20039;-73
2022/10/20 00:29:34;;;;;;;21.33;10.63;;;;;;;8.53;100.00;101480.00;5007531;29;20400;-73
2022/10/20 00:32:05;;;;;;;17.20;11.70;;;;;;;8.51;100.00;101471.34;5007593;29;20476;-73
2022/10/20 00:34:37;;;;;;;17.57;10.50;;;;;;;8.45;100.00;101456.56;5007140;29;20043;-73
2022/10/20 00:37:08;;;;;;;12.10;10.43;;;;;;;8.49;100.00;101460.06;5006037;29;20035;-73
2022/10/20 00:39:39;;;;;;;14.60;10.33;;;;;;;8.45;100.00;101456.56;5006999;29;20113;-73
2022/10/20 00:42:15;;;;;;;20.43;11.20;;;;;;;8.44;100.00;101443.59;5006828;29;20049;-73
2022/10/20 00:44:55;;;;;;;18.20;11.43;;;;;;;8.47;100.00;101440.97;5005196;29;20137;-73
2022/10/20 00:47:50;;;;;;;15.07;10.45;;;;;;;8.46;100.00;101445.31;5006908;29;20118;-73
2022/10/20 00:50:37;;;;;;;23.75;12.40;;;;;;;8.50;100.00;101435.81;5006847;29;20023;-73
2022/10/20 00:53:10;;;;;;;18.02;11.45;;;;;;;8.52;100.00;101432.38;5006178;29;20034;-73
2022/10/20 00:55:45;;;;;;;17.33;11.73;;;;;;;8.49;100.00;101440.16;4990697;29;20043;-73
2022/10/20 00:58:17;;;;;;;16.17;11.57;;;;;;;8.51;100.00;101441.00;5005469;29;20066;-73
2022/10/20 01:00:52;;;;;;;19.20;12.40;;;;;;;8.54;100.00;101443.63;5006699;29;20384;-73
2022/10/20 01:03:30;;;;;;;19.75;13.25;;;;;;;8.52;100.00;101441.91;5006662;29;20121;-74
2022/10/20 01:06:02;;;;;;;20.10;12.50;;;;;;;8.51;100.00;101440.16;5006819;29;20051;-74
2022/10/20 01:08:34;;;;;;;23.35;12.65;;;;;;;8.52;100.00;101418.53;5006291;29;20039;-73
2022/10/20 01:11:17;;;;;;;19.23;13.20;;;;;;;8.48;100.00;101417.59;5006426;29;20039;-73
2022/10/20 01:13:51;;;;;;;16.92;13.05;;;;;;;8.50;100.00;101412.41;5006332;29;20031;-73
2022/10/20 01:17:00;;;;;;;17.95;12.98;;;;;;;8.47;100.00;101402.00;5006383;29;20087;-72
2022/10/20 01:20:00;;;;;;;23.08;14.65;;;;;;;8.48;100.00;101386.44;5006628;29;20034;-74
2022/10/20 01:22:37;;;;;;;23.38;13.63;;;;;;;8.51;100.00;101383.00;5006597;29;20062;-73
2022/10/20 01:25:18;;;;;;;18.10;13.65;;;;;;;8.54;100.00;101381.28;5005322;29;20039;-73
2022/10/20 01:28:16;;;;;;;26.48;15.60;;;;;;;8.58;100.00;101382.16;5006252;29;20035;-72
2022/10/20 01:30:57;;;;;;;26.27;15.35;;;;;;;8.52;100.00;101364.81;5002557;29;20046;-73
2022/10/20 01:33:39;;;;;;;19.13;14.95;;;;;;;8.52;100.00;101361.34;5006062;29;20031;-73
2022/10/20 01:36:27;;;;;;;22.67;14.68;;;;;;;8.50;100.00;101366.53;5005675;29;20429;-73
2022/10/20 01:39:13;;;;;;;20.58;14.93;;;;;;;8.54;100.00;101365.69;5006086;29;20383;-73
2022/10/20 01:41:51;;;;;;;22.77;15.07;;;;;;;8.54;100.00;101368.28;5006577;29;20122;-73
2022/10/20 01:44:25;;;;;;;18.98;15.18;;;;;;;8.54;100.00;101372.63;5005816;29;20377;-73
2022/10/20 01:46:57;;;;;;;25.13;15.25;;;;;;;8.50;100.00;101370.84;5005681;29;20034;-74
2022/10/20 01:49:29;;;;;;;20.33;14.73;;;;;;;8.52;100.00;101376.94;5006210;29;20115;-73
2022/10/20 01:52:01;;;;;;;22.33;15.10;;;;;;;8.51;100.00;101370.84;5006081;29;20035;-73
2022/10/20 01:54:32;;;;;;;20.10;13.47;;;;;;;8.49;100.00;101372.59;5006643;29;20039;-73
2022/10/20 01:57:09;;;;;;;22.63;15.23;;;;;;;8.41;100.00;101371.66;5004660;29;20284;-73
2022/10/20 01:59:59;;;;;;;24.42;15.68;;;;;;;8.38;100.00;101367.28;5006051;29;20463;-73
2022/10/20 02:02:55;;;;;;;25.30;15.52;;;;;;;8.32;100.00;101366.41;5006323;29;20039;-72
2022/10/20 02:05:52;;;;;;;21.13;13.95;;;;;;;8.34;100.00;101372.47;5005887;29;20126;-72
2022/10/20 02:08:37;;;;;;;20.15;14.70;;;;;;;8.29;100.00;101361.19;5006273;29;20094;-73
2022/10/20 02:11:33;;;;;;;18.17;15.02;;;;;;;8.25;100.00;101355.09;5005383;29;20038;-73
2022/10/20 02:14:08;;;;;;;23.45;14.93;;;;;;;8.19;100.00;101350.75;4998624;29;20381;-73
2022/10/20 02:16:47;;;;;;;22.25;13.95;;;;;;;8.14;100.00;101349.84;5006068;29;20138;-72
2022/10/20 02:19:24;;;;;;;20.40;15.05;;;;;;;8.10;100.00;101344.59;5005885;29;20080;-73
2022/10/20 02:21:56;;;;;;;20.35;14.20;;;;;;;8.07;100.00;101336.81;5004619;29;20038;-73
2022/10/20 02:24:33;;;;;;;19.30;14.98;;;;;;;8.04;100.00;101324.69;5005569;29;20043;-72
2022/10/20 02:27:28;;;;;;;26.77;14.70;;;;;;;8.05;100.00;101326.44;5006101;29;20061;-73
2022/10/20 02:30:07;;;;;;;20.42;14.27;;;;;;;8.02;100.00;101324.66;5005257;29;20054;-73
2022/10/20 02:32:40;;;;;;;19.05;14.45;;;;;;;8.04;100.00;101314.28;5005745;29;20425;-73
2022/10/20 02:35:16;;;;;;;24.63;15.15;;;;;;;8.06;100.00;101298.72;5005092;29;20039;-73
2022/10/20 02:37:47;;;;;;;20.63;15.30;;;;;;;8.02;100.00;101296.09;5004181;29;20486;-73
2022/10/20 02:40:21;;;;;;;22.90;15.67;;;;;;;8.04;100.00;101294.38;5005868;29;20046;-72
2022/10/20 02:42:52;;;;;;;20.35;14.85;;;;;;;8.06;100.00;101280.56;5003813;29;20047;-73
2022/10/20 02:45:23;;;;;;;23.53;16.60;;;;;;;8.09;100.00;101286.63;5005951;29;20119;-73
2022/10/20 02:47:55;;;;;;;21.27;15.27;;;;;;;8.07;100.00;101282.31;5005419;29;20126;-73
2022/10/20 02:50:26;;;;;;;23.57;16.60;;;;;;;8.07;100.00;101271.91;5005446;29;20125;-73
2022/10/20 02:52:58;;;;;;;27.20;17.10;;;;;;;8.10;100.00;101261.50;5004836;29;20128;-74
2022/10/20 02:55:29;;;;;;;26.77;17.97;;;;;;;8.12;100.00;101265.00;5005325;29;20105;-73
2022/10/20 02:58:00;;;;;;;28.47;17.77;;;;;;;8.16;100.00;101259.84;5005284;29;20087;-73
2022/10/20 03:00:32;;;;;;;22.00;16.23;;;;;;;8.15;100.00;101245.09;5005241;29;20070;-74
2022/10/20 03:03:03;;;;;;;25.33;17.73;;;;;;;8.16;100.00;101235.59;5005189;29;20103;-74
2022/10/20 03:05:40;;;;;;;25.20;18.47;;;;;;;8.20;100.00;101245.13;5005243;29;20063;-73
2022/10/20 03:08:12;;;;;;;24.92;18.08;;;;;;;8.26;100.00;101237.38;5003869;29;20033;-73
2022/10/20 03:10:44;;;;;;;25.48;18.92;;;;;;;8.22;100.00;101239.06;5005416;29;20050;-73
2022/10/20 03:13:15;;;;;;;26.50;18.73;;;;;;;8.31;100.00;101234.81;5005085;29;20441;-74
2022/10/20 03:15:47;;;;;;;24.60;17.27;;;;;;;8.31;100.00;101229.59;5005296;29;20088;-74
2022/10/20 03:18:18;;;;;;;29.07;19.83;;;;;;;8.36;100.00;101225.28;5013232;29;20106;-74
2022/10/20 03:20:50;;;;;;;29.67;21.70;;;;;;;8.45;100.00;101217.53;5015799;29;20046;-73
2022/10/20 03:23:22;;;;;;;27.50;18.83;;;;;;;8.51;100.00;101216.69;5012904;29;20172;-74
2022/10/20 03:26:00;;;;;;;35.17;20.93;;;;;;;8.51;100.00;101212.34;5011497;29;20077;-74
2022/10/20 03:28:32;;;;;;;28.67;20.10;;;;;;;8.54;100.00;101212.38;5008758;29;20027;-74
2022/10/20 03:31:04;;;;;;;29.38;21.48;;;;;;;8.59;100.00;101214.97;5008390;29;20035;-73
2022/10/20 03:33:36;;;;;;;30.45;21.25;;;;;;;8.61;100.00;101209.78;5008304;29;20068;-73
2022/10/20 03:36:07;;;;;;;29.13;20.40;;;;;;;8.66;100.00;101201.16;5009088;29;20042;-73
2022/10/20 03:38:42;;;;;;;30.60;20.97;;;;;;;8.70;100.00;101204.63;5008042;29;20046;-74
2022/10/20 03:41:13;;;;;;;30.63;20.75;;;;;;;8.69;100.00;101205.47;5008442;29;20099;-74
2022/10/20 03:43:44;;;;;;;37.53;21.93;;;;;;;8.72;100.00;101200.28;5007735;29;20083;-74
2022/10/20 03:46:16;;;;;;;32.27;22.57;;;;;;;8.75;100.00;101195.09;5006869;29;20047;-74
2022/10/20 03:48:47;;;;;;;35.73;23.07;;;;;;;8.76;100.00;101195.09;5007822;29;20027;-73
2022/10/20 03:51:19;;;;;;;32.07;21.17;;;;;;;8.79;100.00;101196.84;4991932;29;20035;-74
2022/10/20 03:53:50;;;;;;;31.80;21.60;;;;;;;8.75;100.00;101180.34;5008509;29;20039;-74
2022/10/20 03:56:21;;;;;;;32.20;23.27;;;;;;;8.79;100.00;101177.75;5007924;29;20133;-73
2022/10/20 03:58:53;;;;;;;26.93;20.77;;;;;;;8.79;100.00;101175.16;5007863;29;20107;-74
2022/10/20 04:01:29;;;;;;;31.57;22.90;;;;;;;8.85;100.00;101188.16;5008035;29;20035;-74
2022/10/20 04:04:01;;;;;;;33.25;22.73;;;;;;;8.79;100.00;101186.44;5008049;29;20109;-74
2022/10/20 04:06:32;;;;;;;33.13;22.73;;;;;;;8.85;100.00;101180.38;5007768;29;20170;-73
2022/10/20 04:09:04;;;;;;;29.90;23.30;;;;;;;8.87;100.00;101181.22;5007758;29;20050;-73
2022/10/20 04:11:35;;;;;;;33.60;22.13;;;;;;;8.91;100.00;101178.63;5007639;29;20146;-74
2022/10/20 04:14:06;;;;;;;29.13;23.13;;;;;;;8.92;100.00;101174.31;5007524;29;20491;-74
2022/10/20 04:16:38;;;;;;;32.80;23.27;;;;;;;9.04;100.00;101176.03;5006641;29;20039;-74
2022/10/20 04:19:09;;;;;;;37.23;25.03;;;;;;;9.06;100.00;101164.75;5007434;29;20035;-74
2022/10/20 04:21:41;;;;;;;30.83;24.03;;;;;;;9.10;100.00;101160.44;5007439;29;20034;-74
2022/10/20 04:24:12;;;;;;;35.10;23.30;;;;;;;9.14;100.00;101154.34;5007257;29;20049;-73
2022/10/20 04:26:43;;;;;;;36.07;24.83;;;;;;;9.19;100.00;101155.22;5007090;29;20114;-74
2022/10/20 04:29:15;;;;;;;36.67;23.90;;;;;;;9.31;100.00;101150.00;5006223;29;20039;-72
2022/10/20 04:31:46;;;;;;;32.33;23.70;;;;;;;9.39;100.00;101146.53;5007154;29;20396;-73
2022/10/20 04:34:17;;;;;;;36.37;23.30;;;;;;;9.45;100.00;101142.19;5007173;29;20041;-73
2022/10/20 04:36:49;;;;;;;33.50;23.77;;;;;;;9.47;100.00;101140.44;5006949;29;20118;-72
2022/10/20 04:39:20;;;;;;;33.47;22.83;;;;;;;9.53;100.00;101136.06;5006929;29;20031;-72
2022/10/20 04:41:52;;;;;;;35.50;21.53;;;;;;;9.56;100.00;101133.47;5006783;29;20114;-72
2022/10/20 04:44:23;;;;;;;25.60;21.07;;;;;;;9.59;100.00;101130.84;5007455;29;20063;-71
2022/10/20 04:46:54;;;;;;;27.67;21.83;;;;;;;9.61;100.00;101131.69;5005618;29;20488;-72
2022/10/20 04:49:26;;;;;;;30.83;22.87;;;;;;;9.63;100.00;101117.81;5007160;29;20038;-71
2022/10/20 04:51:57;;;;;;;25.30;20.00;;;;;;;9.67;100.00;101108.25;5005968;29;20042;-71
2022/10/20 04:54:29;;;;;;;33.47;21.57;;;;;;;9.70;100.00;101104.78;5006788;29;20046;-71
2022/10/20 04:57:00;;;;;;;29.87;21.20;;;;;;;9.72;100.00;101109.09;5006766;29;20037;-71
2022/10/20 04:59:31;;;;;;;26.23;20.00;;;;;;;9.71;100.00;101102.19;5006803;29;20049;-71
2022/10/20 05:02:03;;;;;;;28.80;20.50;;;;;;;9.73;100.00;101107.38;5005476;29;20034;-71
2022/10/20 05:04:34;;;;;;;29.53;19.27;;;;;;;9.70;100.00;101100.44;5007261;29;20039;-71
2022/10/20 05:07:06;;;;;;;25.97;19.93;;;;;;;9.69;100.00;101103.91;5006666;29;20066;-72
2022/10/20 05:09:37;;;;;;;23.20;19.40;;;;;;;9.70;100.00;101110.00;5006911;29;20475;-71
2022/10/20 05:12:08;;;;;;;22.97;19.37;;;;;;;9.67;100.00;101129.94;5006667;29;20039;-71
2022/10/20 05:14:40;;;;;;;25.93;19.90;;;;;;;9.68;100.00;101129.09;5006088;29;20031;-71
2022/10/20 05:17:11;;;;;;;30.07;18.83;;;;;;;9.67;100.00;101105.66;5006564;29;20035;-72
2022/10/20 05:19:42;;;;;;;24.03;18.47;;;;;;;9.59;100.00;101086.59;5006512;29;20035;-72
2022/10/20 05:22:14;;;;;;;28.87;20.17;;;;;;;9.56;100.00;101077.06;5006460;29;20038;-73
2022/10/20 05:24:45;;;;;;;26.37;19.93;;;;;;;9.54;100.00;101077.97;5006459;29;20191;-72
2022/10/20 05:27:16;;;;;;;27.93;20.73;;;;;;;9.50;100.00;101100.53;5005140;29;20039;-72
2022/10/20 05:29:48;;;;;;;27.20;18.80;;;;;;;9.55;100.00;101105.72;5006761;29;20042;-72
2022/10/20 05:32:20;;;;;;;28.33;19.93;;;;;;;9.50;100.00;101097.94;5006148;29;20518;-72
2022/10/20 05:34:51;;;;;;;27.20;19.57;;;;;;;9.47;100.00;101101.41;5004898;29;20026;-72
2022/10/20 05:37:22;;;;;;;27.40;20.47;;;;;;;9.47;100.00;101109.19;5006367;29;20038;-72
2022/10/20 05:39:54;;;;;;;29.80;20.93;;;;;;;9.46;100.00;101101.41;5004195;29;20502;-72
2022/10/20 05:42:25;;;;;;;29.63;20.80;;;;;;;9.44;100.00;101084.94;5005761;29;20051;-73
2022/10/20 05:44:56;;;;;;;28.23;21.40;;;;;;;9.41;100.00;101070.19;5006701;29;20457;-72
2022/10/20 05:47:28;;;;;;;31.57;21.80;;;;;;;9.39;100.00;101077.13;5006473;29;20031;-72
2022/10/20 05:49:59;;;;;;;24.50;19.80;;;;;;;9.39;100.00;101084.09;5005087;29;20038;-73
2022/10/20 05:52:31;;;;;;;28.17;21.83;;;;;;;9.41;100.00;101101.41;5005434;29;20375;-73
2022/10/20 05:55:03;;;;;;;28.47;21.70;;;;;;;9.40;100.00;101093.59;5005970;29;20095;-73
2022/10/20 05:57:35;;;;;;;31.92;21.90;;;;;;;9.42;100.00;101094.50;5005466;29;20043;-73
2022/10/20 06:00:07;;;;;;;27.73;21.27;;;;;;;9.38;100.00;101097.97;5006036;29;20380;-73
2022/10/20 06:02:38;;;;;;;26.80;21.40;;;;;;;9.46;100.00;101099.66;5006427;29;20100;-72
2022/10/20 06:05:09;;;;;;;27.00;21.13;;;;;;;9.43;100.00;101086.66;5005707;29;20073;-72
2022/10/20 06:07:41;;;;;;;31.67;21.03;;;;;;;9.49;100.00;101097.03;5005769;29;20070;-73
2022/10/20 06:10:12;;;;;;;28.07;22.03;;;;;;;9.50;100.00;101084.91;4989289;29;20039;-72
2022/10/20 06:12:43;;;;;;;25.47;20.27;;;;;;;9.52;100.00;101077.09;5005382;29;20046;-72
2022/10/20 06:15:18;;;;;;;31.17;21.63;;;;;;;9.55;100.00;101084.91;5005571;29;20057;-73
2022/10/20 06:17:49;;;;;;;31.05;22.02;;;;;;;9.56;100.00;101087.47;5004330;29;20043;-72
2022/10/20 06:20:21;;;;;;;28.57;21.20;;;;;;;9.60;100.00;101088.34;5005574;29;20399;-72
2022/10/20 06:22:52;;;;;;;28.37;22.03;;;;;;;9.61;100.00;101096.16;5004551;29;20062;-71
2022/10/20 06:25:23;;;;;;;29.50;20.20;;;;;;;9.62;100.00;101097.88;5004351;29;20058;-71
2022/10/20 06:27:55;;;;;;;26.97;20.13;;;;;;;9.70;100.00;101110.00;5004018;29;20035;-72
2022/10/20 06:30:26;;;;;;;25.67;21.53;;;;;;;9.75;100.00;101093.47;5005692;29;20042;-72
2022/10/20 06:32:57;;;;;;;26.07;20.87;;;;;;;9.82;100.00;101084.78;5005124;29;20035;-71
2022/10/20 06:35:29;;;;;;;31.00;20.83;;;;;;;9.88;100.00;101096.03;5005412;29;20113;-71
2022/10/20 06:38:01;;;;;;;25.58;20.63;;;;;;;9.90;100.00;101076.03;5005635;29;20035;-72
2022/10/20 06:40:32;;;;;;;33.23;20.10;;;;;;;9.96;100.00;101076.88;5005063;29;20045;-71
2022/10/20 06:43:04;;;;;;;26.43;18.73;;;;;;;9.99;100.00;101076.00;5005359;29;20049;-72
2022/10/20 06:45:35;;;;;;;27.40;19.50;;;;;;;10.04;100.00;101074.22;5005024;29;20226;-71
2022/10/20 06:48:06;;;;;;;20.63;18.07;;;;;;;10.09;100.00;101087.22;5005071;29;20031;-72
2022/10/20 06:50:38;;;;;;;23.73;17.93;;;;;;;10.12;100.00;101076.78;5005607;29;20045;-71
2022/10/20 06:53:11;;;;;;;24.43;18.17;;;;;;;10.15;100.00;101064.59;5010455;29;20031;-71
2022/10/20 06:55:42;;;;;;;23.75;17.55;;;;;;;10.21;100.00;101076.75;5011850;29;20344;-70
2022/10/20 06:58:13;;;;;;;28.63;19.20;;;;;;;10.26;100.00;101069.75;5011982;29;20125;-72
2022/10/20 07:00:45;;;;;;;23.97;18.60;;;;;;;10.30;100.00;101066.25;5009296;29;20063;-71
2022/10/20 07:03:16;;;;;;;20.70;16.63;;;;;;;10.33;100.00;101055.84;5009219;29;20046;-71
2022/10/20 07:05:47;;;;;;;21.97;16.87;;;;;;;10.39;100.00;101054.94;5008140;29;20035;-71
2022/10/20 07:08:19;;;;;;;22.93;16.40;;;;;;;10.45;100.00;101052.28;5009149;29;20119;-71
2022/10/20 07:11:02;;;;;;;20.13;17.08;;;;;;;10.50;100.00;101073.97;5007610;29;20043;-71
2022/10/20 07:13:35;;;;;;;19.15;16.63;;;;;;;10.55;100.00;101071.31;5008904;29;20117;-71
2022/10/20 07:16:08;;;;;;;19.25;15.32;;;;;;;10.60;100.00;101072.13;5008481;29;20528;-72
2022/10/20 07:18:40;;;;;;;18.42;15.80;;;;;;;10.67;100.00;101075.56;5007335;29;20527;-72
2022/10/20 07:21:14;;;;;;;17.73;15.83;;;;;;;10.74;100.00;101070.28;5008520;29;20038;-72
2022/10/20 07:23:46;;;;;;;22.10;16.77;;;;;;;10.79;100.00;101079.78;5008112;29;20034;-72
2022/10/20 07:26:24;;;;;;;24.20;16.80;;;;;;;10.84;100.00;101070.22;5008468;29;20071;-71
2022/10/20 07:28:57;;;;;;;22.08;15.45;;;;;;;10.88;100.00;101075.38;5008622;29;20379;-72
2022/10/20 07:31:30;;;;;;;20.48;15.45;;;;;;;10.94;100.00;101075.28;5008242;29;20395;-72
2022/10/20 07:34:03;;;;;;;21.90;16.00;;;;;;;10.99;100.00;101080.47;5008476;29;20452;-71
2022/10/20 07:36:35;;;;;;;;;;;;;;;11.11;100.00;101079.50;5008925;29;20357;-72
2022/10/20 07:39:06;;;;;;;21.33;15.02;;;;;;;11.12;100.00;101071.66;5007895;29;19965;-71
2022/10/20 07:41:38;;;;;;;18.63;14.53;;;;;;;11.22;100.00;101074.16;5008161;29;20043;-71
2022/10/20 07:44:10;;;;;;;22.90;14.00;;;;;;;11.26;100.00;101073.25;5007748;29;20146;-72
2022/10/20 07:46:41;;;;;;;23.33;14.57;;;;;;;11.37;100.00;101075.75;5006892;29;20121;-72
2022/10/20 07:49:12;;;;;;;18.30;14.50;;;;;;;11.48;100.00;101073.88;5008139;29;20095;-71
2022/10/20 07:51:44;;;;;;;17.53;14.20;;;;;;;11.58;100.00;101066.78;5007914;29;20034;-71
2022/10/20 07:54:15;;;;;;;18.27;14.80;;;;;;;11.62;100.00;101068.47;5007902;29;20035;-71
2022/10/20 07:56:48;;;;;;;18.03;13.70;;;;;;;11.66;100.00;101075.41;5007844;29;20038;-71
2022/10/20 07:59:19;;;;;;;18.27;14.10;;;;;;;11.70;100.00;101077.06;5008142;29;20037;-72
2022/10/20 08:01:50;;;;;;;15.53;12.67;;;;;;;11.80;100.00;101085.66;5008217;29;20034;-72
2022/10/20 08:04:22;;;;;;;19.23;13.43;;;;;;;11.91;100.00;101080.28;5006451;29;20046;-73
2022/10/20 08:06:53;;;;;;;21.23;14.17;;;;;;;12.03;100.00;101072.31;5007813;29;20403;-73
2022/10/20 08:09:25;;;;;;;16.57;13.07;;;;;;;12.10;100.00;101068.72;5008296;29;20039;-72
2022/10/20 08:11:56;;;;;;;18.37;13.40;;;;;;;12.16;100.00;101076.47;5007350;29;20039;-71
2022/10/20 08:14:30;;;;;;;22.43;14.00;;;;;;;12.28;99.36;101075.41;5007561;29;20460;-71
2022/10/20 08:17:02;;;;;;;17.77;13.20;;;;;;;12.38;99.23;101081.38;5007461;29;20031;-72
2022/10/20 08:19:34;;;;;;;16.50;13.33;;;;;;;12.45;98.23;101071.69;5006393;29;20508;-71
2022/10/20 08:22:05;;;;;;;13.47;12.07;;;;;;;12.53;98.52;101069.81;5007428;29;20303;-72
2022/10/20 08:24:36;;;;;;;15.97;13.20;;;;;;;12.53;97.21;101082.91;5007449;29;20046;-71
2022/10/20 08:27:08;;;;;;;15.70;12.40;;;;;;;12.56;98.21;101065.41;5007329;29;20038;-72
2022/10/20 08:29:39;;;;;;;17.83;13.83;;;;;;;12.65;97.56;101058.28;5006199;29;20041;-72
2022/10/20 08:32:13;;;;;;;17.10;12.93;;;;;;;12.71;97.36;101068.66;5006986;29;20432;-71
2022/10/20 08:34:45;;;;;;;17.77;12.45;;;;;;;12.69;97.23;101066.06;5006569;29;20035;-72
2022/10/20 08:37:16;;;;;;;13.55;11.80;;;;;;;12.76;96.20;101061.56;5007278;29;20054;-72
2022/10/20 08:39:48;;;;;;;19.50;12.67;;;;;;;12.84;96.45;101080.63;5007190;29;20035;-72
2022/10/20 08:42:20;;;;;;;14.20;12.70;;;;;;;12.99;95.79;101074.25;5006954;29;20511;-72
2022/10/20 08:44:55;;;;;;;18.35;12.23;;;;;;;13.17;95.19;101070.44;5006608;29;20063;-72
2022/10/20 08:47:34;;;;;;;16.35;12.60;;;;;;;13.44;93.38;101061.22;5006995;29;20031;-72
2022/10/20 08:50:09;;;;;;;14.13;11.68;;;;;;;13.59;92.35;101064.41;5006028;29;20035;-72
2022/10/20 08:52:41;;;;;;;29.48;11.60;;;;;;;13.62;91.42;101059.09;5007334;29;20043;-72
2022/10/20 08:55:27;;;;;;;13.23;11.15;;;;;;;13.96;92.00;101050.50;5007427;29;20126;-72
2022/10/20 08:58:04;;;;;;;23.58;11.70;;;;;;;14.29;89.84;101037.50;5006531;29;20111;-72
2022/10/20 09:00:37;;;;;;;16.10;10.57;;;;;;;14.34;88.87;101038.25;5006327;29;20160;-72
2022/10/20 09:03:21;;;;;;;17.35;10.45;;;;;;;14.45;89.04;101030.97;5007155;29;20121;-72
2022/10/20 09:06:07;;;;;;;14.23;11.68;;;;;;;14.38;88.76;101043.38;5006604;29;20035;-72
2022/10/20 09:08:39;;;;;;;15.55;11.38;;;;;;;14.31;87.17;101040.94;5007281;29;20045;-72
2022/10/20 09:11:24;;;;;;;14.40;10.27;;;;;;;14.32;87.48;101046.16;5006461;29;20035;-72
2022/10/20 09:13:56;;;;;;;14.82;11.73;;;;;;;14.27;87.37;101044.56;5005640;29;20041;-72
2022/10/20 09:16:37;;;;;;;13.77;9.83;;;;;;;14.25;87.79;101044.59;5006383;29;20118;-72
2022/10/20 09:19:19;;;;;;;14.18;10.38;;;;;;;14.21;88.51;101043.78;5005597;29;20031;-72
2022/10/20 09:21:53;;;;;;;;;;;;;;;14.37;89.10;101046.91;5007339;29;20063;-71
2022/10/20 09:24:28;;;;;;;18.27;11.30;;;;;;;14.14;88.26;101042.22;5006226;29;20374;-71
2022/10/20 09:27:41;;;;;;;12.25;10.13;;;;;;;14.13;90.09;101037.88;5006324;29;20479;-72
2022/10/20 09:30:32;;;;;;;18.83;10.20;;;;;;;14.06;90.62;101041.53;5006344;29;20023;-72
2022/10/20 09:33:23;;;;;;;16.23;10.75;;;;;;;14.06;90.03;101027.59;5006723;29;20030;-72
2022/10/20 09:36:12;;;;;;;15.02;10.20;;;;;;;14.05;90.73;101042.44;5006190;29;20035;-71
2022/10/20 09:38:46;;;;;;;15.35;10.48;;;;;;;13.97;91.06;101046.97;5005915;29;20507;-72
2022/10/20 09:41:28;;;;;;;13.52;10.70;;;;;;;13.92;91.09;101047.09;5006063;29;20066;-72
2022/10/20 09:44:05;;;;;;;16.10;10.18;;;;;;;13.86;91.86;101045.47;5005868;29;20054;-72
2022/10/20 09:46:43;;;;;;;13.20;10.73;;;;;;;13.82;91.85;101056.91;5006069;29;20091;-71
2022/10/20 09:49:31;;;;;;;14.73;10.68;;;;;;;13.78;92.01;101062.25;5006231;29;20034;-71
2022/10/20 09:52:13;;;;;;;15.73;10.85;;;;;;;13.66;92.65;101053.75;5006614;29;20460;-72
2022/10/20 09:54:48;;;;;;;15.80;10.32;;;;;;;13.65;92.89;101038.06;5006750;29;20039;-71
2022/10/20 09:57:21;;;;;;;15.27;10.57;;;;;;;13.63;94.22;101029.38;5006349;29;20073;-72
2022/10/20 09:59:55;;;;;;;18.00;10.65;;;;;;;13.66;94.31;101030.19;5004834;29;20062;-72
2022/10/20 10:02:30;;;;;;;13.68;10.07;;;;;;;13.63;94.49;101038.09;5006324;29;20099;-71
2022/10/20 10:05:18;;;;;;;22.10;11.60;;;;;;;13.64;95.24;101033.75;5006191;29;20054;-73
2022/10/20 10:08:00;;;;;;;13.88;11.00;;;;;;;13.58;96.88;101032.09;5005825;29;20027;-72
2022/10/20 10:10:31;;;;;;;17.73;11.25;;;;;;;13.61;96.83;101032.03;5005508;29;20050;-73
2022/10/20 10:13:04;;;;;;;13.03;10.57;;;;;;;13.63;97.09;101034.63;5005891;29;20337;-72
2022/10/20 10:15:36;;;;;;;18.80;11.23;;;;;;;13.59;98.19;101035.59;5005664;29;20035;-72
2022/10/20 10:18:13;;;;;;;17.42;11.52;;;;;;;13.47;100.00;101034.94;5005713;29;20385;-72
2022/10/20 10:20:45;;;;;;;19.35;11.82;;;;;;;13.37;100.00;101030.81;5005772;29;20118;-72
2022/10/20 10:23:23;;;;;;;21.30;12.33;;;;;;;13.28;100.00;101018.75;5006019;29;20147;-72
2022/10/20 10:25:55;;;;;;;16.00;12.60;;;;;;;13.24;100.00;101018.81;5010142;29;20027;-71
2022/10/20 10:28:33;;;;;;;20.03;13.03;;;;;;;13.21;100.00;101011.03;5012961;29;20049;-71
2022/10/20 10:31:04;;;;;;;18.48;13.15;;;;;;;13.24;100.00;101010.97;5016444;29;20472;-72
2022/10/20 10:33:36;;;;;;;22.63;14.13;;;;;;;13.25;100.00;101003.09;5014548;29;20058;-72
2022/10/20 10:36:30;;;;;;;19.90;13.57;;;;;;;13.29;100.00;100998.66;5012271;29;20086;-72
2022/10/20 10:39:11;;;;;;;19.80;14.30;;;;;;;13.30;100.00;100984.69;5009555;29;20157;-72
2022/10/20 10:41:58;;;;;;;19.85;13.73;;;;;;;13.29;100.00;100982.94;5009694;29;20041;-71
2022/10/20 10:44:47;;;;;;;21.45;14.63;;;;;;;13.30;100.00;100997.75;5009313;29;20095;-72
2022/10/20 10:47:34;;;;;;;24.60;14.70;;;;;;;13.28;100.00;101003.03;5009281;29;20045;-72
2022/10/20 10:50:34;;;;;;;20.90;15.25;;;;;;;13.30;100.00;101001.22;5008877;29;20042;-72
2022/10/20 10:53:44;;;;;;;24.48;15.23;;;;;;;13.31;100.00;101016.06;5005279;29;20467;-71
2022/10/20 10:56:21;;;;;;;20.85;15.27;;;;;;;13.30;100.00;101011.72;4998587;29;20426;-71
2022/10/20 10:59:26;;;;;;;20.80;14.95;;;;;;;13.26;100.00;100999.56;5009137;29;20087;-71
2022/10/20 11:02:22;;;;;;;22.88;17.15;;;;;;;13.27;100.00;101000.44;5009279;29;20187;-71
2022/10/20 11:05:05;;;;;;;19.20;15.85;;;;;;;13.27;100.00;100987.34;5009013;29;20118;-71
2022/10/20 11:08:05;;;;;;;18.63;16.30;;;;;;;13.28;100.00;100979.47;5009148;29;20062;-71
2022/10/20 11:11:10;;;;;;;23.92;16.20;;;;;;;13.28;100.00;100968.13;5009046;29;20041;-71
2022/10/20 11:14:06;;;;;;;21.70;16.45;;;;;;;13.29;100.00;100967.22;5006135;29;20058;-71
2022/10/20 11:17:15;;;;;;;30.23;17.27;;;;;;;13.29;100.00;100972.47;5009086;29;20045;-71
2022/10/20 11:20:10;;;;;;;35.38;17.60;;;;;;;13.28;100.00;100961.16;5007780;29;20463;-71
2022/10/20 11:22:54;;;;;;;27.33;18.08;;;;;;;13.31;100.00;100976.78;5008186;29;20061;-71
2022/10/20 11:25:36;;;;;;;25.13;16.80;;;;;;;13.34;100.00;100969.78;5008976;29;20109;-71
2022/10/20 11:28:44;;;;;;;20.63;17.23;;;;;;;13.35;100.00;100967.13;5009219;29;20134;-71
2022/10/20 11:31:29;;;;;;;26.73;17.63;;;;;;;13.36;100.00;100958.38;5007419;29;20395;-71
2022/10/20 11:34:05;;;;;;;23.48;17.92;;;;;;;13.35;100.00;100940.97;5008861;29;20467;-70
2022/10/20 11:36:48;;;;;;;21.67;17.77;;;;;;;13.36;100.00;100933.94;5008136;29;20072;-70
2022/10/20 11:39:31;;;;;;;25.00;18.60;;;;;;;13.44;100.00;100924.16;5008432;29;20039;-71
2022/10/20 11:42:19;;;;;;;23.33;17.85;;;;;;;13.57;100.00;100924.75;5008358;29;20103;-71
2022/10/20 11:44:53;;;;;;;22.33;18.38;;;;;;;13.63;100.00;100912.38;5007969;29;20376;-71
2022/10/20 11:47:37;;;;;;;20.52;16.65;;;;;;;13.79;100.00;100920.72;5007692;29;20041;-71
2022/10/20 11:50:11;;;;;;;18.65;16.65;;;;;;;13.86;100.00;100916.19;5008051;29;20083;-71